createdAt,value
2023-03-05T00:00:02.318Z,77.00
2023-03-05T00:02:30.165Z,77.00
2023-03-05T00:04:58.030Z,76.20
2023-03-05T00:07:25.885Z,76.70
2023-03-05T00:09:53.732Z,76.60
2023-03-05T00:12:21.581Z,76.40
2023-03-05T00:14:50.791Z,76.60
2023-03-05T00:17:18.722Z,76.80
2023-03-05T00:19:46.563Z,76.50
2023-03-05T00:22:14.406Z,76.70
2023-03-05T00:24:42.264Z,76.60
2023-03-05T00:27:10.158Z,76.30
2023-03-05T00:29:38.004Z,76.70
2023-03-05T00:32:07.509Z,75.50
2023-03-05T00:34:36.347Z,75.50
2023-03-05T00:37:04.450Z,74.90
2023-03-05T00:39:32.317Z,74.60
2023-03-05T00:42:00.222Z,75.30
2023-03-05T00:44:28.073Z,75.70
2023-03-05T00:46:55.902Z,75.20
2023-03-05T00:49:25.114Z,74.90
2023-03-05T00:51:52.969Z,74.20
2023-03-05T00:54:20.892Z,74.90
2023-03-05T00:56:49.196Z,75.30
2023-03-05T00:59:17.045Z,75.10
2023-03-05T01:01:44.894Z,74.10
2023-03-05T01:04:12.749Z,73.50
2023-03-05T01:06:44.691Z,73.90
2023-03-05T01:09:12.829Z,72.40
2023-03-05T01:11:40.945Z,72.00
2023-03-05T01:14:08.823Z,70.60
2023-03-05T01:16:36.701Z,70.70
2023-03-05T01:19:04.730Z,70.50
2023-03-05T01:21:32.570Z,70.90
2023-03-05T01:24:01.777Z,70.80
2023-03-05T01:26:29.650Z,71.40
2023-03-05T01:28:57.694Z,70.30
2023-03-05T01:31:25.595Z,70.00
2023-03-05T01:33:53.853Z,70.30
2023-03-05T01:36:25.061Z,70.20
2023-03-05T01:38:53.397Z,70.50
2023-03-05T01:41:22.787Z,70.90
2023-03-05T01:43:52.878Z,70.90
2023-03-05T01:46:38.027Z,70.50
2023-03-05T01:49:14.446Z,70.80
2023-03-05T01:51:49.224Z,70.70
2023-03-05T01:54:20.631Z,71.00
2023-03-05T01:56:52.934Z,70.80
2023-03-05T01:59:23.001Z,70.80
2023-03-05T02:01:54.793Z,70.80
2023-03-05T02:04:24.833Z,71.90
2023-03-05T02:06:52.745Z,71.90
2023-03-05T02:09:23.524Z,72.30
2023-03-05T02:11:53.479Z,72.40
2023-03-05T02:14:22.271Z,72.60
2023-03-05T02:16:50.231Z,72.60
2023-03-05T02:19:18.453Z,73.30
2023-03-05T02:21:50.022Z,73.30
2023-03-05T02:24:19.975Z,73.30
2023-03-05T02:26:48.688Z,73.30
2023-03-05T02:29:20.169Z,73.90
2023-03-05T02:31:48.041Z,75.00
2023-03-05T02:34:16.013Z,75.20
2023-03-05T02:36:43.917Z,75.20
2023-03-05T02:39:13.677Z,75.20
2023-03-05T02:41:41.567Z,75.30
2023-03-05T02:44:09.772Z,74.90
2023-03-05T02:46:37.611Z,75.30
2023-03-05T02:49:05.466Z,75.50
2023-03-05T02:51:33.310Z,74.90
2023-03-05T02:54:01.134Z,75.00
2023-03-05T02:56:30.337Z,75.20
2023-03-05T02:58:58.178Z,75.20
2023-03-05T03:01:28.117Z,75.00
2023-03-05T03:03:56.512Z,75.00
2023-03-05T03:06:24.487Z,74.90
2023-03-05T03:08:52.366Z,74.90
2023-03-05T03:11:21.421Z,74.90
2023-03-05T03:13:50.647Z,74.40
2023-03-05T03:16:18.691Z,73.20
2023-03-05T03:18:48.759Z,73.20
2023-03-05T03:21:21.094Z,73.20
2023-03-05T03:23:49.105Z,73.20
2023-03-05T03:26:17.306Z,73.20
2023-03-05T03:28:45.551Z,73.50
2023-03-05T03:31:14.845Z,73.60
2023-03-05T03:33:42.778Z,73.20
2023-03-05T03:36:11.370Z,73.00
2023-03-05T03:38:39.523Z,73.00
2023-03-05T03:41:07.957Z,72.60
2023-03-05T03:43:35.874Z,72.70
2023-03-05T03:46:05.550Z,72.90
2023-03-05T03:48:35.996Z,71.60
2023-03-05T03:51:06.286Z,71.70
2023-03-05T03:53:34.264Z,71.30
2023-03-05T03:56:02.164Z,71.10
2023-03-05T03:58:30.448Z,71.10
2023-03-05T04:00:58.277Z,70.50
2023-03-05T04:03:26.213Z,70.70
2023-03-05T04:05:55.424Z,70.90
2023-03-05T04:08:23.323Z,70.20
2023-03-05T04:10:51.251Z,70.20
2023-03-05T04:13:19.156Z,70.20
2023-03-05T04:15:47.237Z,70.10
2023-03-05T04:18:15.157Z,69.60
2023-03-05T04:20:43.059Z,69.20
2023-03-05T04:23:12.243Z,69.40
2023-03-05T04:25:40.267Z,69.20
2023-03-05T04:28:08.152Z,69.10
2023-03-05T04:30:35.978Z,69.40
2023-03-05T04:33:04.054Z,69.20
2023-03-05T04:35:32.056Z,69.40
2023-03-05T04:37:59.968Z,69.10
2023-03-05T04:40:29.351Z,69.20
2023-03-05T04:42:57.181Z,69.20
2023-03-05T04:45:25.142Z,68.80
2023-03-05T04:47:53.008Z,69.00
2023-03-05T04:50:21.216Z,68.60
2023-03-05T04:52:49.300Z,69.10
2023-03-05T04:55:18.114Z,70.00
2023-03-05T04:57:47.359Z,69.70
2023-03-05T05:00:18.031Z,69.90
2023-03-05T05:02:47.365Z,70.10
2023-03-05T05:05:18.091Z,70.10
2023-03-05T05:07:46.098Z,69.80
2023-03-05T05:10:15.516Z,69.60
2023-03-05T05:12:43.791Z,69.50
2023-03-05T05:15:14.612Z,69.50
2023-03-05T05:17:42.479Z,69.40
2023-03-05T05:20:12.934Z,69.40
2023-03-05T05:22:40.871Z,69.40
2023-03-05T05:25:09.552Z,69.40
2023-03-05T05:27:38.019Z,69.60
2023-03-05T05:30:06.930Z,69.50
2023-03-05T05:32:36.347Z,69.50
2023-03-05T05:35:05.073Z,69.60
2023-03-05T05:37:32.912Z,69.50
2023-03-05T05:40:00.821Z,69.60
2023-03-05T05:42:29.513Z,69.80
2023-03-05T05:44:57.405Z,69.40
2023-03-05T05:47:25.234Z,69.30
2023-03-05T05:49:54.417Z,69.00
2023-03-05T05:52:22.694Z,68.60
2023-03-05T05:54:50.584Z,68.90
2023-03-05T05:57:18.455Z,68.80
2023-03-05T05:59:46.331Z,68.20
2023-03-05T06:02:14.269Z,68.70
2023-03-05T06:04:42.121Z,68.90
2023-03-05T06:07:11.287Z,69.30
2023-03-05T06:09:39.129Z,69.30
2023-03-05T06:12:08.345Z,69.40
2023-03-05T06:14:36.361Z,69.30
2023-03-05T06:17:04.294Z,69.40
2023-03-05T06:19:32.169Z,69.70
2023-03-05T06:22:00.009Z,70.30
2023-03-05T06:24:29.771Z,70.60
2023-03-05T06:26:57.640Z,70.00
2023-03-05T06:29:25.510Z,70.20
2023-03-05T06:31:53.361Z,70.00
2023-03-05T06:34:21.189Z,70.40
2023-03-05T06:36:49.072Z,70.00
2023-03-05T06:39:17.288Z,70.20
2023-03-05T06:41:46.492Z,70.00
2023-03-05T06:44:14.348Z,70.10
2023-03-05T06:46:42.201Z,69.40
2023-03-05T06:49:11.692Z,70.00
2023-03-05T06:51:40.911Z,69.50
2023-03-05T06:54:11.877Z,69.20
2023-03-05T06:56:41.621Z,67.90
2023-03-05T06:59:11.938Z,67.80
2023-03-05T07:01:40.141Z,65.90
2023-03-05T07:04:08.166Z,65.80
2023-03-05T07:06:38.164Z,65.90
2023-03-05T07:09:07.241Z,65.50
2023-03-05T07:11:35.579Z,65.30
2023-03-05T07:14:04.269Z,64.90
2023-03-05T07:16:34.932Z,64.80
2023-03-05T07:19:05.196Z,64.70
2023-03-05T07:21:36.881Z,64.40
2023-03-05T07:24:07.176Z,63.50
2023-03-05T07:26:35.102Z,63.50
2023-03-05T07:29:03.219Z,63.40
2023-03-05T07:31:33.095Z,62.90
2023-03-05T07:34:02.806Z,63.60
2023-03-05T07:36:31.711Z,64.30
2023-03-05T07:38:59.564Z,64.20
2023-03-05T07:41:27.842Z,64.60
2023-03-05T07:43:56.137Z,64.80
2023-03-05T07:46:27.104Z,64.60
2023-03-05T07:48:56.801Z,64.60
2023-03-05T07:51:25.788Z,65.40
2023-03-05T07:53:55.346Z,64.90
2023-03-05T07:56:24.600Z,65.10
2023-03-05T07:58:52.565Z,64.80
2023-03-05T08:01:20.710Z,64.80
2023-03-05T08:03:48.624Z,65.30
2023-03-05T08:06:18.508Z,66.20
2023-03-05T08:08:46.338Z,66.10
2023-03-05T08:11:15.908Z,65.90
2023-03-05T08:13:44.816Z,65.70
2023-03-05T08:16:14.558Z,65.20
2023-03-05T08:18:42.816Z,63.80
2023-03-05T08:21:19.814Z,63.80
2023-03-05T08:23:47.780Z,63.20
2023-03-05T08:26:17.837Z,63.90
2023-03-05T08:28:45.823Z,64.00
2023-03-05T08:31:15.373Z,63.90
2023-03-05T08:33:43.719Z,64.40
2023-03-05T08:36:13.267Z,64.60
2023-03-05T08:38:44.570Z,64.80
2023-03-05T08:41:12.641Z,64.30
2023-03-05T08:43:40.698Z,64.10
2023-03-05T08:46:09.003Z,64.20
2023-03-05T08:48:36.963Z,63.90
2023-03-05T08:51:08.661Z,65.50
2023-03-05T08:53:36.666Z,65.50
2023-03-05T08:56:06.567Z,65.20
2023-03-05T08:58:34.836Z,65.10
2023-03-05T09:01:02.672Z,63.70
2023-03-05T09:03:30.526Z,63.80
2023-03-05T09:06:01.665Z,61.90
2023-03-05T09:08:29.999Z,61.70
2023-03-05T09:10:58.211Z,62.00
2023-03-05T09:13:27.493Z,59.50
2023-03-05T09:15:56.317Z,59.90
2023-03-05T09:18:24.226Z,59.50
2023-03-05T09:20:52.069Z,58.80
2023-03-05T09:23:19.931Z,58.80
2023-03-05T09:25:47.828Z,58.00
2023-03-05T09:28:15.682Z,58.20
2023-03-05T09:30:44.864Z,58.10
2023-03-05T09:33:12.800Z,58.80
2023-03-05T09:35:40.778Z,59.60
2023-03-05T09:38:08.648Z,58.00
2023-03-05T09:40:46.388Z,58.40
2023-03-05T09:43:25.475Z,58.50
2023-03-05T09:46:11.473Z,58.10
2023-03-05T09:48:50.649Z,56.70
2023-03-05T09:51:24.304Z,57.10
2023-03-05T09:54:02.711Z,57.40
2023-03-05T09:56:35.956Z,55.80
2023-03-05T09:59:14.908Z,56.90
2023-03-05T10:01:45.931Z,57.00
2023-03-05T10:04:17.432Z,54.90
2023-03-05T10:06:51.196Z,55.20
2023-03-05T10:09:29.315Z,55.00
2023-03-05T10:12:00.105Z,53.70
2023-03-05T10:14:30.953Z,53.40
2023-03-05T10:17:23.639Z,53.40
2023-03-05T10:20:15.767Z,52.00
2023-03-05T10:22:57.001Z,52.90
2023-03-05T10:25:31.606Z,53.60
2023-03-05T10:28:05.997Z,53.90
2023-03-05T10:30:45.677Z,53.30
2023-03-05T10:33:25.437Z,52.80
2023-03-05T10:36:11.172Z,52.90
2023-03-05T10:39:11.713Z,54.30
2023-03-05T10:41:48.345Z,53.40
2023-03-05T10:44:23.801Z,53.10
2023-03-05T10:46:51.886Z,52.90
2023-03-05T10:49:26.697Z,54.00
2023-03-05T10:52:02.019Z,52.40
2023-03-05T10:54:31.238Z,51.80
2023-03-05T10:57:14.546Z,51.20
2023-03-05T10:59:45.212Z,50.80
2023-03-05T11:02:13.102Z,49.40
2023-03-05T11:04:42.541Z,46.80
2023-03-05T11:07:36.654Z,48.40
2023-03-05T11:10:14.767Z,49.00
2023-03-05T11:12:46.198Z,48.80
2023-03-05T11:15:30.099Z,49.00
2023-03-05T11:18:24.107Z,48.30
2023-03-05T11:20:53.504Z,47.70
2023-03-05T11:23:23.583Z,48.10
2023-03-05T11:25:57.532Z,48.60
2023-03-05T11:28:33.481Z,47.30
2023-03-05T11:31:09.580Z,48.10
2023-03-05T11:33:38.730Z,47.10
2023-03-05T11:36:25.893Z,46.70
2023-03-05T11:38:56.563Z,47.10
2023-03-05T11:41:35.181Z,46.40
2023-03-05T11:44:07.060Z,47.00
2023-03-05T11:46:41.948Z,47.00
2023-03-05T11:49:13.039Z,47.80
2023-03-05T11:51:46.793Z,47.80
2023-03-05T11:54:20.694Z,47.60
2023-03-05T11:56:49.372Z,47.40
2023-03-05T11:59:20.155Z,47.00
2023-03-05T12:01:50.391Z,47.00
2023-03-05T12:04:19.503Z,47.40
2023-03-05T12:06:51.923Z,47.40
2023-03-05T12:09:27.624Z,47.60
2023-03-05T12:12:01.472Z,46.60
2023-03-05T12:14:37.865Z,46.20
2023-03-05T12:17:15.005Z,46.20
2023-03-05T12:19:53.619Z,46.90
2023-03-05T12:22:25.309Z,46.80
2023-03-05T12:24:53.401Z,48.20
2023-03-05T12:27:35.287Z,47.60
2023-03-05T12:30:04.136Z,48.50
2023-03-05T12:33:02.242Z,48.80
2023-03-05T12:35:35.899Z,49.80
2023-03-05T12:38:26.521Z,50.00
2023-03-05T12:41:28.173Z,50.00
2023-03-05T12:44:23.690Z,50.40
2023-03-05T12:47:18.365Z,49.80
2023-03-05T12:49:48.594Z,50.20
2023-03-05T12:52:24.740Z,50.80
2023-03-05T12:55:20.230Z,49.30
2023-03-05T12:57:50.756Z,49.10
2023-03-05T13:00:26.314Z,49.30
2023-03-05T13:02:58.774Z,50.20
2023-03-05T13:05:30.413Z,49.00
2023-03-05T13:08:14.865Z,48.50
2023-03-05T13:10:52.651Z,50.20
2023-03-05T13:13:21.611Z,49.40
2023-03-05T13:15:51.558Z,49.40
2023-03-05T13:18:22.622Z,49.00
2023-03-05T13:21:02.522Z,49.10
2023-03-05T13:23:30.456Z,48.50
2023-03-05T13:26:11.984Z,48.70
2023-03-05T13:28:41.795Z,48.70
2023-03-05T13:31:15.823Z,49.60
2023-03-05T13:33:53.153Z,48.90
2023-03-05T13:36:21.493Z,49.00
2023-03-05T13:38:49.926Z,49.00
2023-03-05T13:41:22.548Z,48.60
2023-03-05T13:43:52.311Z,48.80
2023-03-05T13:46:33.322Z,48.30
2023-03-05T13:49:20.354Z,48.20
2023-03-05T13:51:50.331Z,48.10
2023-03-05T13:54:19.117Z,47.90
2023-03-05T13:56:56.575Z,48.50
2023-03-05T13:59:25.624Z,47.80
2023-03-05T14:01:54.400Z,48.50
2023-03-05T14:04:25.199Z,48.60
2023-03-05T14:06:58.277Z,47.30
2023-03-05T14:09:28.251Z,48.30
2023-03-05T14:12:05.357Z,47.60
2023-03-05T14:14:37.623Z,48.00
2023-03-05T14:17:31.922Z,47.30
2023-03-05T14:20:09.506Z,47.10
2023-03-05T14:22:39.742Z,47.90
2023-03-05T14:25:23.574Z,47.50
2023-03-05T14:27:53.075Z,47.80
2023-03-05T14:30:22.781Z,47.50
2023-03-05T14:32:53.905Z,47.70
2023-03-05T14:35:23.803Z,47.60
2023-03-05T14:37:53.744Z,47.80
2023-03-05T14:40:27.970Z,47.40
2023-03-05T14:42:58.624Z,47.60
2023-03-05T14:45:27.852Z,45.60
2023-03-05T14:47:59.118Z,46.10
2023-03-05T14:50:30.271Z,45.80
2023-03-05T14:53:00.428Z,45.90
2023-03-05T14:55:31.724Z,46.70
2023-03-05T14:58:04.264Z,46.80
2023-03-05T15:00:33.049Z,46.80
2023-03-05T15:03:01.081Z,46.90
2023-03-05T15:05:29.138Z,47.20
2023-03-05T15:07:57.044Z,47.10
2023-03-05T15:10:26.088Z,47.50
2023-03-05T15:12:54.194Z,47.20
2023-03-05T15:15:23.861Z,47.50
2023-03-05T15:17:54.963Z,47.90
2023-03-05T15:20:30.358Z,48.40
2023-03-05T15:22:58.192Z,48.80
2023-03-05T15:25:28.724Z,47.40
2023-03-05T15:27:56.842Z,48.00
2023-03-05T15:30:28.369Z,48.00
2023-03-05T15:32:57.408Z,48.10
2023-03-05T15:35:26.646Z,47.90
2023-03-05T15:37:55.144Z,48.20
2023-03-05T15:40:23.158Z,48.40
2023-03-05T15:42:51.695Z,48.40
2023-03-05T15:45:19.577Z,48.40
2023-03-05T15:47:51.047Z,49.00
2023-03-05T15:50:19.786Z,48.40
2023-03-05T15:52:48.021Z,48.50
2023-03-05T15:55:17.492Z,48.80
2023-03-05T15:57:46.920Z,48.70
2023-03-05T16:00:18.038Z,48.80
2023-03-05T16:02:45.877Z,49.80
2023-03-05T16:05:15.316Z,50.10
2023-03-05T16:07:46.787Z,49.90
2023-03-05T16:10:17.692Z,50.20
2023-03-05T16:12:47.844Z,50.60
2023-03-05T16:15:18.976Z,50.80
2023-03-05T16:17:50.667Z,51.70
2023-03-05T16:20:21.500Z,51.80
2023-03-05T16:22:49.738Z,51.70
2023-03-05T16:25:18.278Z,51.20
2023-03-05T16:27:46.370Z,51.80
2023-03-05T16:30:16.549Z,51.50
2023-03-05T16:32:44.997Z,51.40
2023-03-05T16:35:13.415Z,51.70
2023-03-05T16:37:43.254Z,51.80
2023-03-05T16:40:13.257Z,51.60
2023-03-05T16:42:41.153Z,50.60
2023-03-05T16:45:10.671Z,50.90
2023-03-05T16:47:39.471Z,50.70
2023-03-05T16:50:09.610Z,50.60
2023-03-05T16:52:38.661Z,50.50
2023-03-05T16:55:11.668Z,50.50
2023-03-05T16:57:40.257Z,50.50
2023-03-05T17:00:11.586Z,50.50
2023-03-05T17:02:39.536Z,50.60
2023-03-05T17:05:07.954Z,51.70
2023-03-05T17:07:35.914Z,51.00
2023-03-05T17:10:04.025Z,51.40
2023-03-05T17:12:34.988Z,51.50
2023-03-05T17:15:03.024Z,51.50
2023-03-05T17:17:31.860Z,52.00
2023-03-05T17:20:00.212Z,51.80
2023-03-05T17:22:28.458Z,52.10
2023-03-05T17:24:56.464Z,52.50
2023-03-05T17:27:24.348Z,52.30
2023-03-05T17:29:53.952Z,52.40
2023-03-05T17:32:21.933Z,52.70
2023-03-05T17:34:53.419Z,52.80
2023-03-05T17:37:21.647Z,52.90
2023-03-05T17:39:49.572Z,52.90
2023-03-05T17:42:20.443Z,52.90
2023-03-05T17:47:18.836Z,53.70
2023-03-05T17:49:46.986Z,54.10
2023-03-05T17:52:14.796Z,54.10
2023-03-05T17:54:42.594Z,53.80
2023-03-05T17:57:10.465Z,54.10
2023-03-05T17:59:38.259Z,54.40
2023-03-05T18:02:06.127Z,54.50
2023-03-05T18:04:35.744Z,54.80
2023-03-05T18:07:04.008Z,54.80
2023-03-05T18:09:31.817Z,55.60
2023-03-05T18:12:00.014Z,56.00
2023-03-05T18:14:29.407Z,56.80
2023-03-05T18:16:59.057Z,56.90
2023-03-05T18:19:27.128Z,57.20
2023-03-05T18:21:56.229Z,57.80
2023-03-05T18:24:24.008Z,58.50
2023-03-05T18:26:51.838Z,58.10
2023-03-05T18:29:19.589Z,57.80
2023-03-05T18:31:47.345Z,57.70
2023-03-05T18:34:15.108Z,58.10
2023-03-05T18:36:42.923Z,58.30
2023-03-05T18:39:13.166Z,58.50
2023-03-05T18:41:41.995Z,58.20
2023-03-05T18:44:09.762Z,58.30
2023-03-05T18:46:37.661Z,58.90
2023-03-05T18:49:05.545Z,58.80
2023-03-05T18:51:35.252Z,59.70
2023-03-05T18:54:03.461Z,61.30
2023-03-05T18:56:32.620Z,64.20
2023-03-05T18:59:00.593Z,65.80
2023-03-05T19:01:28.713Z,67.70
2023-03-05T19:03:57.184Z,70.20
2023-03-05T19:06:25.088Z,71.90
2023-03-05T19:08:58.498Z,72.60
2023-03-05T19:11:26.411Z,73.20
2023-03-05T19:13:56.981Z,76.00
2023-03-05T19:16:29.224Z,76.40
2023-03-05T19:19:03.909Z,76.30
2023-03-05T19:21:32.045Z,77.20
2023-03-05T19:23:59.976Z,77.80
2023-03-05T19:26:27.863Z,78.50
2023-03-05T19:28:57.177Z,79.00
2023-03-05T19:31:25.067Z,79.60
2023-03-05T19:33:52.901Z,80.20
2023-03-05T19:36:20.703Z,81.80
2023-03-05T19:38:49.619Z,84.20
2023-03-05T19:41:19.451Z,84.80
2023-03-05T19:43:49.150Z,84.70
2023-03-05T19:46:18.638Z,85.30
2023-03-05T19:48:46.831Z,85.50
2023-03-05T19:51:17.311Z,86.20
2023-03-05T19:53:45.079Z,86.50
2023-03-05T19:56:15.812Z,86.60
2023-03-05T19:58:45.424Z,85.70
2023-03-05T20:01:20.693Z,85.80
2023-03-05T20:03:50.434Z,86.00
2023-03-05T20:06:18.740Z,86.00
2023-03-05T20:08:47.236Z,86.00
2023-03-05T20:11:17.487Z,85.50
2023-03-05T20:13:45.852Z,85.50
2023-03-05T20:16:16.511Z,85.30
2023-03-05T20:18:46.261Z,84.50
2023-03-05T20:21:21.382Z,84.30
2023-03-05T20:23:49.285Z,83.80
2023-03-05T20:26:17.174Z,83.00
2023-03-05T20:28:45.250Z,82.90
2023-03-05T20:31:14.106Z,82.60
2023-03-05T20:33:41.889Z,82.10
2023-03-05T20:36:11.285Z,82.20
2023-03-05T20:38:39.147Z,82.20
2023-03-05T20:41:08.631Z,82.10
2023-03-05T20:43:38.986Z,82.10
2023-03-05T20:46:06.915Z,82.10
2023-03-05T20:48:35.337Z,82.80
2023-03-05T20:51:13.981Z,81.90
2023-03-05T20:53:41.869Z,82.10
2023-03-05T20:56:09.730Z,82.10
2023-03-05T20:58:37.995Z,82.10
2023-03-05T21:01:06.094Z,82.50
2023-03-05T21:03:33.964Z,82.80
2023-03-05T21:06:03.648Z,82.70
2023-03-05T21:08:32.820Z,83.20
2023-03-05T21:11:00.737Z,83.30
2023-03-05T21:13:28.867Z,83.50
2023-03-05T21:15:56.719Z,83.60
2023-03-05T21:18:24.577Z,84.40
2023-03-05T21:20:52.408Z,84.70
2023-03-05T21:23:20.165Z,84.80
2023-03-05T21:25:49.378Z,85.00
2023-03-05T21:28:18.597Z,85.10
2023-03-05T21:30:48.686Z,84.90
2023-03-05T21:33:18.691Z,84.70
2023-03-05T21:35:46.778Z,84.60
2023-03-05T21:38:15.019Z,84.70
2023-03-05T21:40:45.570Z,84.70
2023-03-05T21:43:15.132Z,84.90
2023-03-05T21:45:43.493Z,85.70
2023-03-05T21:48:11.510Z,85.30
2023-03-05T21:50:41.477Z,85.40
2023-03-05T21:53:09.498Z,85.40
2023-03-05T21:55:46.492Z,85.20
2023-03-05T21:58:15.766Z,84.80
2023-03-05T22:00:43.550Z,84.80
2023-03-05T22:03:11.363Z,84.70
2023-03-05T22:05:39.138Z,84.80
2023-03-05T22:08:06.929Z,84.60
2023-03-05T22:10:34.711Z,83.90
2023-03-05T22:13:12.166Z,84.50
2023-03-05T22:15:47.899Z,84.90
2023-03-05T22:18:17.048Z,84.50
2023-03-05T22:20:45.288Z,84.70
2023-03-05T22:23:13.439Z,84.70
2023-03-05T22:25:41.835Z,84.90
2023-03-05T22:28:11.125Z,84.50
2023-03-05T22:30:44.078Z,84.60
2023-03-05T22:33:13.693Z,84.40
2023-03-05T22:35:42.361Z,85.30
2023-03-05T22:38:11.090Z,84.60
2023-03-05T22:40:41.994Z,85.30
2023-03-05T22:43:10.446Z,84.40
2023-03-05T22:45:38.904Z,84.40
2023-03-05T22:48:07.447Z,84.50
2023-03-05T22:50:36.617Z,84.00
2023-03-05T22:53:04.533Z,84.30
2023-03-05T22:55:32.315Z,84.30
2023-03-05T22:58:00.113Z,84.30
2023-03-05T23:00:29.955Z,84.20
2023-03-05T23:02:57.827Z,83.90
2023-03-05T23:05:25.639Z,84.00
2023-03-05T23:07:54.802Z,83.90
2023-03-05T23:10:26.940Z,83.90
2023-03-05T23:12:56.901Z,83.60
2023-03-05T23:15:27.066Z,83.70
2023-03-05T23:17:55.588Z,83.70
2023-03-05T23:20:25.802Z,83.70
2023-03-05T23:22:56.133Z,83.80
2023-03-05T23:25:26.360Z,83.60
2023-03-05T23:27:54.661Z,83.80
2023-03-05T23:30:23.396Z,84.00
2023-03-05T23:32:52.970Z,84.00
2023-03-05T23:35:22.798Z,83.90
2023-03-05T23:37:51.289Z,83.40
2023-03-05T23:40:23.203Z,82.90
2023-03-05T23:42:51.565Z,82.80
2023-03-05T23:45:20.916Z,82.00
2023-03-05T23:47:49.396Z,82.30
2023-03-05T23:50:19.342Z,82.80
2023-03-05T23:52:48.256Z,82.80
2023-03-05T23:55:18.619Z,82.90
2023-03-05T23:57:48.011Z,82.90
